createdAt,value
2022-10-22T00:00:05.689Z,5.78
2022-10-22T00:01:38.828Z,6.15
2022-10-22T00:03:11.203Z,6.05
2022-10-22T00:06:19.698Z,5.68
2022-10-22T00:07:51.327Z,6.25
2022-10-22T00:09:22.960Z,6.13
2022-10-22T00:10:56.061Z,6.28
2022-10-22T00:12:27.936Z,6.28
2022-10-22T00:13:59.597Z,6.25
2022-10-22T00:15:31.209Z,6.10
2022-10-22T00:17:04.221Z,5.82
2022-10-22T00:18:38.466Z,5.78
2022-10-22T00:20:10.969Z,6.45
2022-10-22T00:21:42.600Z,6.25
2022-10-22T00:23:14.198Z,6.18
2022-10-22T00:24:45.798Z,6.45
2022-10-22T00:26:18.740Z,6.38
2022-10-22T00:27:50.413Z,5.75
2022-10-22T00:29:23.580Z,5.82
2022-10-22T00:30:56.685Z,7.00
2022-10-22T00:32:28.294Z,5.97
2022-10-22T00:34:01.433Z,6.25
2022-10-22T00:35:33.449Z,6.78
2022-10-22T00:37:05.239Z,6.40
2022-10-22T00:38:36.838Z,6.15
2022-10-22T00:40:10.231Z,6.75
2022-10-22T00:41:43.717Z,6.20
2022-10-22T00:43:17.797Z,6.05
2022-10-22T00:45:04.627Z,6.32
2022-10-22T00:46:36.222Z,6.15
2022-10-22T00:48:10.531Z,5.90
2022-10-22T00:49:42.891Z,6.40
2022-10-22T00:51:14.795Z,6.43
2022-10-22T00:52:47.479Z,6.20
2022-10-22T00:54:19.126Z,6.80
2022-10-22T00:55:53.663Z,6.53
2022-10-22T00:57:27.729Z,6.78
2022-10-22T00:59:02.201Z,6.55
2022-10-22T01:00:33.955Z,6.32
2022-10-22T01:02:05.692Z,6.90
2022-10-22T01:03:37.514Z,6.03
2022-10-22T01:05:09.842Z,6.43
2022-10-22T01:06:41.585Z,6.20
2022-10-22T01:08:25.238Z,6.57
2022-10-22T01:10:07.923Z,6.25
2022-10-22T01:11:52.618Z,6.43
2022-10-22T01:13:36.592Z,6.90
2022-10-22T01:15:24.509Z,6.72
2022-10-22T01:17:05.076Z,6.78
2022-10-22T01:18:45.405Z,6.43
2022-10-22T01:20:37.818Z,6.80
2022-10-22T01:22:16.782Z,6.93
2022-10-22T01:24:17.205Z,6.85
2022-10-22T01:25:58.397Z,6.47
2022-10-22T01:27:49.104Z,6.60
2022-10-22T01:29:27.523Z,6.72
2022-10-22T01:31:01.613Z,6.60
2022-10-22T01:32:39.820Z,7.15
2022-10-22T01:34:14.164Z,6.63
2022-10-22T01:35:46.015Z,6.78
2022-10-22T01:37:20.633Z,6.80
2022-10-22T01:38:53.413Z,6.80
2022-10-22T01:40:26.266Z,6.95
2022-10-22T01:41:58.281Z,6.93
2022-10-22T01:43:29.872Z,6.78
2022-10-22T01:45:10.138Z,6.45
2022-10-22T01:46:41.901Z,6.85
2022-10-22T01:48:34.712Z,6.70
2022-10-22T01:50:18.583Z,7.55
2022-10-22T01:52:02.845Z,6.55
2022-10-22T01:55:25.570Z,6.93
2022-10-22T01:57:07.387Z,6.40
2022-10-22T01:58:44.128Z,6.90
2022-10-22T02:00:18.975Z,7.13
2022-10-22T02:01:59.524Z,6.95
2022-10-22T02:03:39.074Z,7.20
2022-10-22T02:05:16.655Z,7.10
2022-10-22T02:06:51.453Z,7.07
2022-10-22T02:08:27.045Z,6.68
2022-10-22T02:10:00.600Z,7.10
2022-10-22T02:11:32.367Z,6.50
2022-10-22T02:13:08.263Z,7.25
2022-10-22T02:14:44.004Z,6.60
2022-10-22T02:16:23.811Z,7.20
2022-10-22T02:17:58.338Z,7.25
2022-10-22T02:19:38.520Z,7.05
2022-10-22T02:21:10.442Z,6.32
2022-10-22T02:22:42.871Z,6.90
2022-10-22T02:24:15.011Z,6.75
2022-10-22T02:25:52.157Z,6.70
2022-10-22T02:27:30.334Z,7.10
2022-10-22T02:29:08.344Z,6.60
2022-10-22T02:30:44.324Z,6.50
2022-10-22T02:32:22.985Z,6.70
2022-10-22T02:33:57.804Z,7.07
2022-10-22T02:35:30.601Z,7.00
2022-10-22T02:37:04.481Z,6.53
2022-10-22T02:38:37.205Z,7.00
2022-10-22T02:40:10.480Z,6.65
2022-10-22T02:41:42.489Z,7.00
2022-10-22T02:43:14.124Z,7.18
2022-10-22T02:44:45.754Z,7.05
2022-10-22T02:46:17.449Z,6.65
2022-10-22T02:47:50.569Z,7.25
2022-10-22T02:49:22.271Z,7.10
2022-10-22T02:50:53.847Z,7.00
2022-10-22T02:52:25.433Z,7.45
2022-10-22T02:53:57.073Z,7.07
2022-10-22T02:55:28.826Z,6.93
2022-10-22T02:57:00.435Z,7.43
2022-10-22T02:58:32.023Z,7.95
2022-10-22T03:00:04.648Z,7.57
2022-10-22T03:01:36.428Z,7.30
2022-10-22T03:03:09.434Z,7.28
2022-10-22T03:04:41.057Z,7.20
2022-10-22T03:06:14.046Z,7.28
2022-10-22T03:07:45.755Z,7.40
2022-10-22T03:09:21.262Z,7.95
2022-10-22T03:10:55.740Z,7.15
2022-10-22T03:12:27.454Z,7.50
2022-10-22T03:13:59.065Z,7.30
2022-10-22T03:15:30.702Z,7.50
2022-10-22T03:17:02.336Z,7.25
2022-10-22T03:18:35.420Z,8.15
2022-10-22T03:20:08.113Z,7.35
2022-10-22T03:21:42.660Z,7.22
2022-10-22T03:23:16.818Z,7.88
2022-10-22T03:24:51.049Z,7.50
2022-10-22T03:26:23.725Z,7.45
2022-10-22T03:28:00.794Z,7.20
2022-10-22T03:29:35.994Z,7.60
2022-10-22T03:31:07.677Z,8.13
2022-10-22T03:32:39.381Z,7.95
2022-10-22T03:34:13.412Z,7.50
2022-10-22T03:35:47.397Z,7.43
2022-10-22T03:37:19.505Z,7.97
2022-10-22T03:38:51.207Z,7.57
2022-10-22T03:40:23.000Z,7.78
2022-10-22T03:41:54.869Z,8.40
2022-10-22T03:43:26.779Z,7.70
2022-10-22T03:44:58.354Z,8.48
2022-10-22T03:46:30.069Z,7.57
2022-10-22T03:48:01.768Z,7.82
2022-10-22T03:49:35.225Z,6.97
2022-10-22T03:51:07.582Z,7.60
2022-10-22T03:52:40.178Z,8.02
2022-10-22T03:54:11.775Z,7.53
2022-10-22T03:55:43.389Z,7.82
2022-10-22T03:57:15.227Z,7.63
2022-10-22T03:58:46.819Z,8.00
2022-10-22T04:00:18.857Z,7.90
2022-10-22T04:01:50.496Z,7.60
2022-10-22T04:03:22.072Z,7.88
2022-10-22T04:04:55.037Z,7.72
2022-10-22T04:06:26.684Z,7.78
2022-10-22T04:07:58.270Z,8.07
2022-10-22T04:09:31.213Z,7.40
2022-10-22T04:11:03.217Z,7.50
2022-10-22T04:12:34.821Z,9.85
2022-10-22T04:14:06.419Z,7.18
2022-10-22T04:15:38.138Z,7.40
2022-10-22T04:17:09.842Z,7.60
2022-10-22T04:18:43.003Z,8.48
2022-10-22T04:20:16.054Z,8.13
2022-10-22T04:21:47.634Z,8.23
2022-10-22T04:23:19.368Z,7.72
2022-10-22T04:26:27.517Z,7.95
2022-10-22T04:27:59.170Z,8.30
2022-10-22T04:29:30.772Z,7.53
2022-10-22T04:31:08.276Z,7.57
2022-10-22T04:32:39.852Z,7.63
2022-10-22T04:34:11.507Z,18.85
2022-10-22T04:35:44.614Z,8.00
2022-10-22T04:37:16.243Z,8.15
2022-10-22T04:38:51.990Z,7.82
2022-10-22T04:40:23.727Z,8.05
2022-10-22T04:41:55.323Z,8.00
2022-10-22T04:43:27.032Z,7.50
2022-10-22T04:44:58.627Z,7.53
2022-10-22T04:46:33.696Z,8.00
2022-10-22T04:48:06.011Z,7.75
2022-10-22T04:49:37.628Z,8.20
2022-10-22T04:51:13.138Z,7.75
2022-10-22T04:52:44.729Z,7.88
2022-10-22T04:54:16.398Z,8.35
2022-10-22T04:55:48.011Z,7.60
2022-10-22T04:57:19.641Z,8.15
2022-10-22T04:58:53.846Z,7.88
2022-10-22T05:00:25.452Z,9.20
2022-10-22T05:01:57.058Z,8.35
2022-10-22T05:03:28.652Z,7.88
2022-10-22T05:05:00.245Z,8.27
2022-10-22T05:06:35.233Z,8.35
2022-10-22T05:08:06.811Z,8.10
2022-10-22T05:09:38.461Z,8.02
2022-10-22T05:11:14.484Z,7.88
2022-10-22T05:12:46.073Z,8.05
2022-10-22T05:14:19.483Z,8.50
2022-10-22T05:15:51.102Z,7.65
2022-10-22T05:17:22.710Z,7.85
2022-10-22T05:18:54.392Z,8.07
2022-10-22T05:20:26.026Z,7.70
2022-10-22T05:22:01.138Z,8.18
2022-10-22T05:23:32.745Z,8.55
2022-10-22T05:25:05.049Z,8.18
2022-10-22T05:26:36.796Z,7.88
2022-10-22T05:28:08.390Z,9.23
2022-10-22T05:29:40.411Z,8.40
2022-10-22T05:31:13.503Z,15.32
2022-10-22T05:32:45.182Z,8.65
2022-10-22T05:34:17.263Z,9.05
2022-10-22T05:35:49.064Z,8.60
2022-10-22T05:37:22.032Z,9.30
2022-10-22T05:38:54.196Z,9.00
2022-10-22T05:40:30.917Z,9.02
2022-10-22T05:42:03.157Z,9.02
2022-10-22T05:43:35.266Z,9.10
2022-10-22T05:45:08.170Z,9.85
2022-10-22T05:46:40.516Z,8.60
2022-10-22T05:48:12.130Z,8.73
2022-10-22T05:49:43.736Z,9.63
2022-10-22T05:51:15.461Z,9.20
2022-10-22T05:52:48.434Z,9.30
2022-10-22T05:54:22.063Z,9.20
2022-10-22T05:55:53.673Z,8.73
2022-10-22T05:57:25.304Z,8.80
2022-10-22T05:58:57.017Z,9.02
2022-10-22T06:00:28.713Z,8.63
2022-10-22T06:02:00.425Z,8.80
2022-10-22T06:03:32.799Z,8.65
2022-10-22T06:05:04.713Z,8.65
2022-10-22T06:06:39.513Z,9.05
2022-10-22T06:08:18.214Z,8.52
2022-10-22T06:09:51.092Z,8.90
2022-10-22T06:11:23.797Z,8.90
2022-10-22T06:12:55.516Z,9.23
2022-10-22T06:14:28.083Z,9.15
2022-10-22T06:15:59.661Z,10.15
2022-10-22T06:17:31.367Z,9.55
2022-10-22T06:19:03.281Z,9.30
2022-10-22T06:20:35.242Z,9.05
2022-10-22T06:22:06.884Z,9.20
2022-10-22T06:23:40.837Z,9.75
2022-10-22T06:25:14.086Z,9.30
2022-10-22T06:26:58.614Z,9.45
2022-10-22T06:28:30.419Z,9.63
2022-10-22T06:30:02.224Z,9.98
2022-10-22T06:31:36.904Z,9.57
2022-10-22T06:33:08.530Z,9.80
2022-10-22T06:34:40.197Z,9.10
2022-10-22T06:36:14.157Z,9.57
2022-10-22T06:37:47.415Z,9.18
2022-10-22T06:39:20.441Z,9.27
2022-10-22T06:40:52.055Z,8.77
2022-10-22T06:42:23.841Z,8.60
2022-10-22T06:43:57.176Z,9.10
2022-10-22T06:45:28.971Z,9.10
2022-10-22T06:47:00.638Z,8.68
2022-10-22T06:48:32.292Z,7.97
2022-10-22T06:50:04.320Z,7.97
2022-10-22T06:51:35.951Z,8.55
2022-10-22T06:53:07.711Z,8.18
2022-10-22T06:54:43.461Z,8.30
2022-10-22T06:56:17.519Z,7.45
2022-10-22T06:57:49.375Z,7.95
2022-10-22T06:59:21.000Z,8.00
2022-10-22T07:01:01.032Z,8.15
2022-10-22T07:04:05.459Z,7.72
2022-10-22T07:05:37.273Z,8.10
2022-10-22T07:07:08.901Z,7.35
2022-10-22T07:08:41.676Z,6.70
2022-10-22T07:10:14.994Z,7.70
2022-10-22T07:11:46.758Z,6.65
2022-10-22T07:13:18.403Z,7.05
2022-10-22T07:14:50.111Z,6.70
2022-10-22T07:16:22.177Z,6.50
2022-10-22T07:17:53.821Z,6.85
2022-10-22T07:19:25.448Z,6.95
2022-10-22T07:20:57.234Z,6.00
2022-10-22T07:22:28.977Z,5.88
2022-10-22T07:24:00.763Z,6.57
2022-10-22T07:25:33.734Z,6.60
2022-10-22T07:27:09.378Z,5.68
2022-10-22T07:28:43.837Z,5.93
2022-10-22T07:30:15.571Z,5.80
2022-10-22T07:31:47.186Z,5.82
2022-10-22T07:33:18.775Z,5.43
2022-10-22T07:34:50.393Z,5.80
2022-10-22T07:36:22.036Z,5.80
2022-10-22T07:37:53.719Z,5.82
2022-10-22T07:39:25.895Z,5.60
2022-10-22T07:40:59.038Z,5.63
2022-10-22T07:42:30.700Z,5.93
2022-10-22T07:44:02.472Z,5.65
2022-10-22T07:45:34.115Z,5.65
2022-10-22T07:47:05.835Z,7.20
2022-10-22T07:48:37.926Z,6.25
2022-10-22T07:50:09.959Z,5.97
2022-10-22T07:51:41.789Z,6.40
2022-10-22T07:53:13.406Z,6.72
2022-10-22T07:54:45.013Z,5.97
2022-10-22T07:56:18.037Z,6.43
2022-10-22T07:57:50.818Z,5.55
2022-10-22T07:59:22.617Z,5.35
2022-10-22T08:00:56.301Z,5.30
2022-10-22T08:02:27.911Z,5.15
2022-10-22T08:03:59.642Z,10.68
2022-10-22T08:05:31.313Z,4.60
2022-10-22T08:07:02.956Z,4.65
2022-10-22T08:08:34.836Z,4.25
2022-10-22T08:10:08.099Z,4.45
2022-10-22T08:11:41.083Z,4.68
2022-10-22T08:13:12.808Z,4.03
2022-10-22T08:14:44.410Z,4.70
2022-10-22T08:16:16.057Z,4.10
2022-10-22T08:17:47.712Z,4.82
2022-10-22T08:19:21.112Z,4.20
2022-10-22T08:20:53.493Z,4.15
2022-10-22T08:22:25.166Z,4.00
2022-10-22T08:23:56.827Z,6.93
2022-10-22T08:25:28.526Z,4.20
2022-10-22T08:27:01.503Z,3.80
2022-10-22T08:28:36.894Z,3.60
2022-10-22T08:30:09.721Z,3.85
2022-10-22T08:31:41.385Z,4.10
2022-10-22T08:33:12.996Z,4.13
2022-10-22T08:34:44.600Z,3.83
2022-10-22T08:36:16.226Z,3.70
2022-10-22T08:37:47.865Z,3.65
2022-10-22T08:39:19.480Z,3.80
2022-10-22T08:40:54.610Z,3.38
2022-10-22T08:42:49.321Z,3.88
2022-10-22T08:44:46.673Z,3.17
2022-10-22T08:46:44.762Z,5.72
2022-10-22T08:48:28.113Z,3.70
2022-10-22T08:50:00.484Z,3.45
2022-10-22T08:51:35.829Z,3.38
2022-10-22T08:53:13.894Z,3.22
2022-10-22T08:54:51.520Z,4.18
2022-10-22T08:56:23.664Z,3.13
2022-10-22T08:58:01.966Z,3.80
2022-10-22T08:59:42.105Z,3.40
2022-10-22T09:01:16.400Z,3.00
2022-10-22T09:02:59.388Z,3.55
2022-10-22T09:04:37.734Z,3.50
2022-10-22T09:06:14.006Z,3.47
2022-10-22T09:07:50.048Z,3.97
2022-10-22T09:09:23.934Z,3.72
2022-10-22T09:11:01.500Z,4.47
2022-10-22T09:12:33.562Z,4.00
2022-10-22T09:14:11.951Z,3.70
2022-10-22T09:15:46.490Z,4.95
2022-10-22T09:17:27.128Z,5.22
2022-10-22T09:19:07.755Z,4.18
2022-10-22T09:20:49.293Z,3.70
2022-10-22T09:22:30.305Z,3.50
2022-10-22T09:24:11.490Z,3.95
2022-10-22T09:25:45.173Z,3.33
2022-10-22T09:27:19.507Z,3.30
2022-10-22T09:28:52.049Z,3.20
2022-10-22T09:30:26.964Z,3.30
2022-10-22T09:31:58.674Z,2.97
2022-10-22T09:33:31.703Z,3.10
2022-10-22T09:35:03.565Z,3.35
2022-10-22T09:36:37.820Z,3.30
2022-10-22T09:38:09.477Z,3.03
2022-10-22T09:39:44.853Z,3.13
2022-10-22T09:41:17.718Z,3.40
2022-10-22T09:42:49.697Z,3.22
2022-10-22T09:44:21.585Z,3.17
2022-10-22T09:45:59.436Z,3.22
2022-10-22T09:47:43.668Z,3.17
2022-10-22T09:49:33.277Z,3.15
2022-10-22T09:51:12.868Z,2.95
2022-10-22T09:52:44.752Z,2.70
2022-10-22T09:54:19.654Z,2.60
2022-10-22T09:55:53.711Z,3.00
2022-10-22T09:57:27.385Z,2.70
2022-10-22T09:58:59.245Z,2.80
2022-10-22T10:00:30.996Z,2.70
2022-10-22T10:02:26.652Z,2.83
2022-10-22T10:04:09.795Z,2.78
2022-10-22T10:05:43.940Z,2.80
2022-10-22T10:07:18.931Z,3.00
2022-10-22T10:08:50.933Z,2.53
2022-10-22T10:10:34.629Z,3.15
2022-10-22T10:12:17.025Z,2.70
2022-10-22T10:13:59.733Z,2.92
2022-10-22T10:15:40.097Z,2.45
2022-10-22T10:17:24.117Z,3.17
2022-10-22T10:19:17.424Z,2.95
2022-10-22T10:20:57.484Z,2.50
2022-10-22T10:22:47.081Z,2.67
2022-10-22T10:24:27.633Z,2.42
2022-10-22T10:26:06.341Z,2.83
2022-10-22T10:27:42.883Z,3.47
2022-10-22T10:29:29.781Z,2.65
2022-10-22T10:31:11.842Z,2.72
2022-10-22T10:32:55.134Z,2.70
2022-10-22T10:34:35.476Z,2.78
2022-10-22T10:36:16.633Z,2.72
2022-10-22T10:38:02.343Z,2.60
2022-10-22T10:39:44.231Z,2.60
2022-10-22T10:41:29.038Z,3.10
2022-10-22T10:43:06.888Z,2.63
2022-10-22T10:44:59.610Z,2.30
2022-10-22T10:46:43.539Z,2.83
2022-10-22T10:48:48.448Z,2.60
2022-10-22T10:50:26.776Z,2.75
2022-10-22T10:52:06.491Z,2.92
2022-10-22T10:53:52.077Z,2.70
2022-10-22T10:55:29.807Z,2.72
2022-10-22T10:57:08.134Z,2.50
2022-10-22T10:58:49.963Z,2.30
2022-10-22T11:00:22.386Z,2.10
2022-10-22T11:02:09.825Z,2.53
2022-10-22T11:04:15.822Z,2.42
2022-10-22T11:05:54.002Z,2.65
2022-10-22T11:07:45.465Z,2.50
2022-10-22T11:09:24.570Z,2.70
2022-10-22T11:11:01.175Z,3.15
2022-10-22T11:12:39.637Z,2.47
2022-10-22T11:14:16.952Z,2.83
2022-10-22T11:15:55.541Z,2.35
2022-10-22T11:17:35.536Z,2.70
2022-10-22T11:19:22.962Z,2.78
2022-10-22T11:21:17.936Z,3.08
2022-10-22T11:23:18.280Z,2.35
2022-10-22T11:24:53.707Z,2.42
2022-10-22T11:26:37.134Z,2.60
2022-10-22T11:29:54.099Z,2.50
2022-10-22T11:31:26.835Z,2.30
2022-10-22T11:33:01.977Z,2.67
2022-10-22T11:34:42.300Z,2.20
2022-10-22T11:36:15.797Z,2.60
2022-10-22T11:37:48.287Z,2.42
2022-10-22T11:39:38.109Z,2.30
2022-10-22T11:42:47.908Z,2.25
2022-10-22T11:44:23.179Z,2.28
2022-10-22T11:46:01.977Z,2.60
2022-10-22T11:47:36.003Z,2.40
2022-10-22T11:49:19.557Z,2.30
2022-10-22T11:50:57.427Z,2.00
2022-10-22T11:52:40.773Z,2.47
2022-10-22T11:54:42.204Z,2.50
2022-10-22T11:56:24.925Z,2.20
2022-10-22T11:57:59.173Z,2.38
2022-10-22T11:59:39.338Z,2.95
2022-10-22T12:01:41.594Z,2.35
2022-10-22T12:03:17.844Z,2.47
2022-10-22T12:04:49.563Z,2.28
2022-10-22T12:06:25.088Z,1.95
2022-10-22T12:08:00.008Z,2.20
2022-10-22T12:09:34.265Z,2.78
2022-10-22T12:11:17.037Z,2.20
2022-10-22T12:12:55.781Z,2.45
2022-10-22T12:14:32.564Z,2.90
2022-10-22T12:16:05.331Z,2.10
2022-10-22T12:17:37.000Z,2.17
2022-10-22T12:19:14.929Z,2.03
2022-10-22T12:20:50.615Z,2.60
2022-10-22T12:22:27.213Z,2.22
2022-10-22T12:23:59.507Z,2.38
2022-10-22T12:25:35.606Z,2.60
2022-10-22T12:27:22.343Z,2.40
2022-10-22T12:28:58.589Z,2.47
2022-10-22T12:30:34.475Z,2.53
2022-10-22T12:32:06.471Z,2.38
2022-10-22T12:33:38.787Z,2.17
2022-10-22T12:35:16.755Z,2.67
2022-10-22T12:36:50.039Z,2.50
2022-10-22T12:38:25.458Z,3.08
2022-10-22T12:39:57.151Z,2.85
2022-10-22T12:41:34.476Z,3.40
2022-10-22T12:43:12.439Z,2.90
2022-10-22T12:44:44.938Z,2.40
2022-10-22T12:46:17.020Z,2.30
2022-10-22T12:47:50.256Z,2.45
2022-10-22T12:49:25.271Z,2.40
2022-10-22T12:50:59.422Z,2.30
2022-10-22T12:52:31.107Z,2.28
2022-10-22T12:54:08.246Z,2.30
2022-10-22T12:55:40.047Z,2.33
2022-10-22T12:57:14.685Z,2.40
2022-10-22T12:58:51.867Z,2.40
2022-10-22T13:00:26.765Z,2.70
2022-10-22T13:01:58.929Z,2.75
2022-10-22T13:03:34.778Z,2.05
2022-10-22T13:05:21.712Z,2.80
2022-10-22T13:07:05.977Z,3.38
2022-10-22T13:08:38.839Z,2.83
2022-10-22T13:10:20.073Z,2.15
2022-10-22T13:11:54.183Z,2.20
2022-10-22T13:13:30.975Z,2.75
2022-10-22T13:15:22.941Z,1.90
2022-10-22T13:17:12.138Z,2.03
2022-10-22T13:18:45.171Z,2.13
2022-10-22T13:20:20.340Z,2.40
2022-10-22T13:21:54.021Z,2.10
2022-10-22T13:23:28.085Z,1.90
2022-10-22T13:25:21.051Z,2.30
2022-10-22T13:26:54.528Z,1.75
2022-10-22T13:28:27.027Z,1.80
2022-10-22T13:30:02.858Z,1.95
2022-10-22T13:31:37.685Z,1.98
2022-10-22T13:33:28.769Z,1.67
2022-10-22T13:35:02.215Z,2.00
2022-10-22T13:36:34.023Z,2.10
2022-10-22T13:38:11.536Z,2.08
2022-10-22T13:39:43.144Z,2.10
2022-10-22T13:41:23.088Z,2.33
2022-10-22T13:42:56.078Z,2.38
2022-10-22T13:44:27.682Z,1.98
2022-10-22T13:46:00.301Z,2.10
2022-10-22T13:47:33.001Z,2.15
2022-10-22T13:49:04.818Z,2.13
2022-10-22T13:50:36.421Z,2.00
2022-10-22T13:52:10.598Z,2.08
2022-10-22T13:53:43.602Z,1.67
2022-10-22T13:55:17.800Z,2.05
2022-10-22T13:56:49.436Z,1.90
2022-10-22T13:58:26.589Z,1.95
2022-10-22T13:59:58.191Z,2.60
2022-10-22T14:01:30.093Z,2.00
2022-10-22T14:03:01.757Z,2.53
2022-10-22T14:04:38.035Z,2.47
2022-10-22T14:06:13.170Z,2.13
2022-10-22T14:07:45.322Z,2.22
2022-10-22T14:09:17.991Z,2.63
2022-10-22T14:10:49.604Z,2.40
2022-10-22T14:12:21.380Z,2.17
2022-10-22T14:13:54.361Z,2.42
2022-10-22T14:15:28.618Z,2.05
2022-10-22T14:17:00.252Z,2.17
2022-10-22T14:18:33.056Z,2.22
2022-10-22T14:20:05.250Z,2.00
2022-10-22T14:21:38.014Z,2.50
2022-10-22T14:23:14.590Z,2.75
2022-10-22T14:24:47.379Z,2.72
2022-10-22T14:26:22.530Z,2.03
2022-10-22T14:27:54.712Z,2.97
2022-10-22T14:29:27.686Z,2.92
2022-10-22T14:30:59.576Z,2.58
2022-10-22T14:32:31.320Z,2.28
2022-10-22T14:34:02.948Z,2.40
2022-10-22T14:35:34.614Z,2.53
2022-10-22T14:37:13.403Z,1.95
2022-10-22T14:38:46.895Z,2.00
2022-10-22T14:40:20.601Z,2.40
2022-10-22T14:41:52.350Z,2.20
2022-10-22T14:43:26.343Z,2.08
2022-10-22T14:44:59.304Z,2.30
2022-10-22T14:46:31.835Z,2.30
2022-10-22T14:48:03.903Z,2.47
2022-10-22T14:49:35.593Z,2.70
2022-10-22T14:51:07.774Z,2.33
2022-10-22T14:52:40.095Z,2.47
2022-10-22T14:54:12.217Z,2.05
2022-10-22T14:55:46.998Z,2.22
2022-10-22T14:57:18.622Z,2.60
2022-10-22T14:58:50.383Z,2.05
2022-10-22T15:00:23.771Z,2.50
2022-10-22T15:01:55.537Z,1.98
2022-10-22T15:03:27.165Z,2.60
2022-10-22T15:04:58.882Z,2.30
2022-10-22T15:06:30.704Z,2.63
2022-10-22T15:08:02.534Z,2.25
2022-10-22T15:09:34.141Z,2.63
2022-10-22T15:11:07.682Z,2.33
2022-10-22T15:12:39.480Z,2.20
2022-10-22T15:14:11.248Z,2.28
2022-10-22T15:15:44.285Z,2.90
2022-10-22T15:17:17.175Z,2.30
2022-10-22T15:18:48.950Z,2.40
2022-10-22T15:20:20.763Z,2.72
2022-10-22T15:21:52.574Z,2.88
2022-10-22T15:23:24.562Z,3.42
2022-10-22T15:24:56.176Z,3.05
2022-10-22T15:26:29.014Z,2.67
2022-10-22T15:28:04.649Z,2.53
2022-10-22T15:29:40.044Z,2.70
2022-10-22T15:31:14.968Z,3.05
2022-10-22T15:32:46.676Z,3.45
2022-10-22T15:34:20.719Z,2.88
2022-10-22T15:35:52.468Z,2.80
2022-10-22T15:37:24.247Z,2.80
2022-10-22T15:38:55.868Z,3.08
2022-10-22T15:40:27.745Z,2.40
2022-10-22T15:42:00.289Z,2.85
2022-10-22T15:43:32.280Z,2.90
2022-10-22T15:45:04.469Z,3.22
2022-10-22T15:46:37.569Z,3.33
2022-10-22T15:48:11.394Z,3.58
2022-10-22T15:49:45.792Z,3.10
2022-10-22T15:51:19.273Z,2.95
2022-10-22T15:52:50.966Z,2.60
2022-10-22T15:54:25.600Z,3.00
2022-10-22T15:55:57.177Z,3.42
2022-10-22T15:57:28.795Z,3.20
2022-10-22T15:59:04.827Z,3.10
2022-10-22T16:00:36.515Z,4.03
2022-10-22T16:02:10.705Z,4.45
2022-10-22T16:03:42.318Z,3.90
2022-10-22T16:05:13.986Z,3.33
2022-10-22T16:06:48.195Z,3.28
2022-10-22T16:08:19.878Z,3.60
2022-10-22T16:09:54.785Z,3.10
2022-10-22T16:11:28.837Z,3.10
2022-10-22T16:13:00.556Z,3.13
2022-10-22T16:14:32.197Z,3.42
2022-10-22T16:16:06.642Z,19.90
2022-10-22T16:17:39.654Z,4.65
2022-10-22T16:19:12.956Z,4.88
2022-10-22T16:20:44.706Z,4.25
2022-10-22T16:22:16.377Z,4.38
2022-10-22T16:23:48.319Z,3.70
2022-10-22T16:25:19.939Z,4.03
2022-10-22T16:26:53.075Z,3.92
2022-10-22T16:28:24.735Z,3.90
2022-10-22T16:29:56.375Z,3.97
2022-10-22T16:31:28.316Z,4.47
2022-10-22T16:33:03.424Z,6.60
2022-10-22T16:34:35.361Z,7.43
2022-10-22T16:36:07.917Z,6.07
2022-10-22T16:37:39.845Z,6.55
2022-10-22T16:39:12.244Z,6.43
2022-10-22T16:40:44.255Z,6.15
2022-10-22T16:42:15.957Z,7.80
2022-10-22T16:43:49.491Z,8.48
2022-10-22T16:45:21.113Z,6.60
2022-10-22T16:46:52.773Z,6.25
2022-10-22T16:48:25.805Z,6.30
2022-10-22T16:50:00.725Z,6.20
2022-10-22T16:51:32.787Z,6.43
2022-10-22T16:53:04.445Z,4.95
2022-10-22T16:54:36.188Z,5.38
2022-10-22T16:56:08.915Z,5.75
2022-10-22T16:57:40.823Z,5.50
2022-10-22T16:59:12.633Z,5.72
2022-10-22T17:00:44.329Z,5.78
2022-10-22T17:02:16.088Z,5.45
2022-10-22T17:03:49.065Z,5.18
2022-10-22T17:05:21.541Z,5.18
2022-10-22T17:06:53.202Z,5.70
2022-10-22T17:08:25.003Z,5.03
2022-10-22T17:09:56.635Z,5.30
2022-10-22T17:11:30.196Z,5.22
2022-10-22T17:13:02.229Z,4.88
2022-10-22T17:14:34.326Z,5.20
2022-10-22T17:16:08.917Z,5.20
2022-10-22T17:17:40.840Z,5.10
2022-10-22T17:19:15.834Z,5.00
2022-10-22T17:20:47.476Z,5.30
2022-10-22T17:22:19.129Z,5.78
2022-10-22T17:23:54.633Z,6.40
2022-10-22T17:25:36.112Z,7.32
2022-10-22T17:27:07.845Z,6.28
2022-10-22T17:28:39.613Z,5.65
2022-10-22T17:30:16.466Z,6.07
2022-10-22T17:31:48.081Z,6.80
2022-10-22T17:33:19.734Z,7.03
2022-10-22T17:34:52.740Z,6.13
2022-10-22T17:36:25.824Z,6.60
2022-10-22T17:37:57.438Z,6.25
2022-10-22T17:39:29.103Z,5.95
2022-10-22T17:41:04.343Z,5.70
2022-10-22T17:42:38.589Z,5.68
2022-10-22T17:44:12.178Z,5.15
2022-10-22T17:45:43.794Z,5.25
2022-10-22T17:47:15.531Z,5.63
2022-10-22T17:48:49.656Z,6.47
2022-10-22T17:50:22.746Z,4.60
2022-10-22T17:51:54.566Z,4.00
2022-10-22T17:53:26.356Z,5.13
2022-10-22T17:54:58.013Z,4.30
2022-10-22T17:56:30.296Z,4.40
2022-10-22T17:58:02.659Z,5.32
2022-10-22T17:59:35.161Z,4.90
2022-10-22T18:01:07.164Z,6.45
2022-10-22T18:02:39.922Z,6.07
2022-10-22T18:04:14.804Z,5.93
2022-10-22T18:05:47.866Z,7.07
2022-10-22T18:07:20.728Z,6.10
2022-10-22T18:10:29.786Z,7.28
2022-10-22T18:12:01.444Z,5.32
2022-10-22T18:13:33.305Z,5.50
2022-10-22T18:15:05.803Z,7.95
2022-10-22T18:16:37.604Z,6.85
2022-10-22T18:18:09.350Z,6.70
2022-10-22T18:19:41.027Z,6.88
2022-10-22T18:21:14.455Z,5.78
2022-10-22T18:22:48.961Z,6.50
2022-10-22T18:24:20.631Z,6.30
2022-10-22T18:25:52.582Z,6.53
2022-10-22T18:27:24.483Z,7.60
2022-10-22T18:28:57.444Z,8.52
2022-10-22T18:30:29.046Z,8.30
2022-10-22T18:32:00.665Z,7.82
2022-10-22T18:33:32.315Z,8.40
2022-10-22T18:35:04.804Z,8.82
2022-10-22T18:36:38.144Z,9.30
2022-10-22T18:38:10.623Z,7.68
2022-10-22T18:39:42.268Z,7.85
2022-10-22T18:41:13.897Z,6.20
2022-10-22T18:42:45.907Z,5.88
2022-10-22T18:44:17.996Z,5.70
2022-10-22T18:45:49.879Z,6.10
2022-10-22T18:47:21.563Z,5.55
2022-10-22T18:48:53.905Z,5.47
2022-10-22T18:50:25.613Z,4.85
2022-10-22T18:51:58.680Z,6.30
2022-10-22T18:53:30.786Z,6.90
2022-10-22T18:55:02.520Z,7.50
2022-10-22T18:56:34.131Z,8.63
2022-10-22T18:58:05.915Z,7.40
2022-10-22T18:59:37.665Z,6.85
2022-10-22T19:01:10.008Z,7.25
2022-10-22T19:02:42.813Z,8.48
2022-10-22T19:04:14.998Z,8.40
2022-10-22T19:05:49.157Z,6.32
2022-10-22T19:07:25.253Z,5.60
2022-10-22T19:08:56.972Z,6.38
2022-10-22T19:10:28.886Z,8.07
2022-10-22T19:12:01.028Z,7.85
2022-10-22T19:13:32.685Z,6.93
2022-10-22T19:15:05.177Z,7.10
2022-10-22T19:16:39.879Z,7.72
2022-10-22T19:18:13.233Z,7.60
2022-10-22T19:19:45.148Z,8.20
2022-10-22T19:21:17.140Z,7.30
2022-10-22T19:22:50.944Z,7.97
2022-10-22T19:24:22.694Z,7.57
2022-10-22T19:26:01.073Z,7.65
2022-10-22T19:27:32.717Z,7.45
2022-10-22T19:29:04.520Z,8.20
2022-10-22T19:30:40.052Z,7.47
2022-10-22T19:32:11.766Z,7.75
2022-10-22T19:33:43.474Z,6.55
2022-10-22T19:35:15.538Z,8.38
2022-10-22T19:36:51.495Z,7.70
2022-10-22T19:38:29.564Z,6.97
2022-10-22T19:40:01.551Z,7.10
2022-10-22T19:41:33.645Z,8.60
2022-10-22T19:43:05.250Z,7.93
2022-10-22T19:44:36.889Z,7.13
2022-10-22T19:46:08.723Z,7.45
2022-10-22T19:47:42.146Z,6.88
2022-10-22T19:49:16.578Z,6.05
2022-10-22T19:50:58.243Z,6.60
2022-10-22T19:52:29.823Z,6.25
2022-10-22T19:54:05.687Z,5.53
2022-10-22T19:55:42.697Z,5.20
2022-10-22T19:57:16.215Z,6.13
2022-10-22T19:58:47.989Z,6.20
2022-10-22T20:00:20.075Z,6.13
2022-10-22T20:01:51.756Z,5.82
2022-10-22T20:03:23.355Z,5.88
2022-10-22T20:04:54.980Z,5.97
2022-10-22T20:06:26.849Z,6.22
2022-10-22T20:07:59.184Z,6.25
2022-10-22T20:09:32.347Z,6.03
2022-10-22T20:11:04.629Z,6.35
2022-10-22T20:12:36.472Z,6.50
2022-10-22T20:14:08.192Z,6.32
2022-10-22T20:15:39.849Z,6.72
2022-10-22T20:17:12.679Z,6.47
2022-10-22T20:18:44.539Z,6.63
2022-10-22T20:20:16.426Z,6.40
2022-10-22T20:21:50.453Z,6.30
2022-10-22T20:23:22.207Z,6.25
2022-10-22T20:24:55.254Z,6.35
2022-10-22T20:26:28.401Z,6.70
2022-10-22T20:28:00.146Z,5.95
2022-10-22T20:29:32.015Z,5.82
2022-10-22T20:31:08.622Z,6.70
2022-10-22T20:32:40.937Z,6.57
2022-10-22T20:34:13.096Z,6.55
2022-10-22T20:35:44.895Z,6.38
2022-10-22T20:37:16.693Z,6.40
2022-10-22T20:38:51.856Z,6.22
2022-10-22T20:40:28.935Z,6.35
2022-10-22T20:42:28.937Z,6.47
2022-10-22T20:44:06.396Z,6.10
2022-10-22T20:45:38.037Z,6.47
2022-10-22T20:47:12.201Z,6.88
2022-10-22T20:48:47.274Z,6.78
2022-10-22T20:50:25.261Z,5.60
2022-10-22T20:51:57.184Z,6.03
2022-10-22T20:53:28.884Z,6.15
2022-10-22T20:55:00.491Z,5.80
2022-10-22T20:56:40.059Z,6.25
2022-10-22T20:58:14.872Z,6.60
2022-10-22T20:59:50.539Z,5.90
2022-10-22T21:01:31.206Z,6.32
2022-10-22T21:03:05.252Z,6.80
2022-10-22T21:04:37.102Z,6.13
2022-10-22T21:06:08.764Z,5.70
2022-10-22T21:07:41.451Z,5.88
2022-10-22T21:09:16.540Z,5.90